createdAt,value
2023-04-06T00:00:27.202Z,61.90
2023-04-06T00:05:31.775Z,61.70
2023-04-06T00:10:35.546Z,62.28
2023-04-06T00:15:40.562Z,62.20
2023-04-06T00:20:44.094Z,62.27
2023-04-06T00:25:49.060Z,61.73
2023-04-06T00:30:56.470Z,62.34
2023-04-06T00:36:00.448Z,62.52
2023-04-06T00:41:05.382Z,62.27
2023-04-06T00:46:10.456Z,62.73
2023-04-06T00:51:14.588Z,62.82
2023-04-06T00:56:18.108Z,63.04
2023-04-06T01:01:23.156Z,63.04
2023-04-06T01:06:26.549Z,63.01
2023-04-06T01:11:30.503Z,63.32
2023-04-06T01:16:36.692Z,63.85
2023-04-06T01:21:40.680Z,63.56
2023-04-06T01:26:46.549Z,64.35
2023-04-06T01:31:50.288Z,63.60
2023-04-06T01:36:53.787Z,63.49
2023-04-06T01:41:58.959Z,64.31
2023-04-06T01:47:02.485Z,64.61
2023-04-06T01:52:07.076Z,64.58
2023-04-06T01:57:13.101Z,64.90
2023-04-06T02:02:16.801Z,64.89
2023-04-06T02:07:20.685Z,64.96
2023-04-06T02:12:25.683Z,65.38
2023-04-06T02:17:29.250Z,65.58
2023-04-06T02:22:32.713Z,65.95
2023-04-06T02:27:37.901Z,66.18
2023-04-06T02:32:41.420Z,66.52
2023-04-06T02:37:44.909Z,66.50
2023-04-06T02:42:50.048Z,66.42
2023-04-06T02:47:53.409Z,66.58
2023-04-06T02:52:56.817Z,66.81
2023-04-06T02:58:01.541Z,66.81
2023-04-06T03:03:05.086Z,67.54
2023-04-06T03:08:08.528Z,67.50
2023-04-06T03:13:13.448Z,67.70
2023-04-06T03:18:16.942Z,67.99
2023-04-06T03:23:21.969Z,68.75
2023-04-06T03:28:26.791Z,69.27
2023-04-06T03:33:30.454Z,69.00
2023-04-06T03:38:33.834Z,69.89
2023-04-06T03:43:39.317Z,70.17
2023-04-06T03:48:42.900Z,70.26
2023-04-06T03:53:46.402Z,70.58
2023-04-06T03:58:51.973Z,71.42
2023-04-06T04:03:56.366Z,71.49
2023-04-06T04:09:00.025Z,71.46
2023-04-06T04:14:04.931Z,71.77
2023-04-06T04:19:08.589Z,72.67
2023-04-06T04:24:12.300Z,72.70
2023-04-06T04:29:17.824Z,73.48
2023-04-06T04:34:25.081Z,74.19
2023-04-06T04:39:28.454Z,74.03
2023-04-06T04:44:33.568Z,74.28
2023-04-06T04:49:37.031Z,74.73
2023-04-06T04:54:42.188Z,74.63
2023-04-06T04:59:47.580Z,75.12
2023-04-06T05:04:55.268Z,75.56
2023-04-06T05:09:59.092Z,75.17
2023-04-06T05:15:04.165Z,74.38
2023-04-06T05:20:09.320Z,74.64
2023-04-06T05:25:12.936Z,73.91
2023-04-06T05:30:18.017Z,73.49
2023-04-06T05:35:21.608Z,73.03
2023-04-06T05:40:25.761Z,72.54
2023-04-06T05:45:30.906Z,71.76
2023-04-06T05:50:34.237Z,70.81
2023-04-06T05:55:40.150Z,70.29
2023-04-06T06:00:47.208Z,69.26
2023-04-06T06:05:53.944Z,67.20
2023-04-06T06:10:58.232Z,63.82
2023-04-06T06:16:06.224Z,63.65
2023-04-06T06:21:10.351Z,56.04
2023-04-06T06:26:13.800Z,53.64
2023-04-06T06:31:21.643Z,53.13
2023-04-06T06:36:26.531Z,49.56
2023-04-06T06:41:30.004Z,44.05
2023-04-06T06:46:34.826Z,41.42
2023-04-06T06:51:38.914Z,38.75
2023-04-06T06:56:42.269Z,37.94
2023-04-06T07:01:47.356Z,36.21
2023-04-06T07:06:51.697Z,34.91
2023-04-06T07:11:58.263Z,33.13
2023-04-06T07:17:03.969Z,31.30
2023-04-06T07:22:10.566Z,32.54
2023-04-06T07:27:13.966Z,33.27
2023-04-06T07:32:21.289Z,31.44
2023-04-06T07:37:25.135Z,30.88
2023-04-06T07:42:28.484Z,31.04
2023-04-06T07:47:34.009Z,30.77
2023-04-06T07:52:38.448Z,30.13
2023-04-06T07:57:42.746Z,30.52
2023-04-06T08:02:47.844Z,28.76
2023-04-06T08:07:51.253Z,28.77
2023-04-06T08:12:55.084Z,29.08
2023-04-06T08:18:00.017Z,29.54
2023-04-06T08:23:03.534Z,28.46
2023-04-06T08:28:10.696Z,29.66
2023-04-06T08:33:15.891Z,29.70
2023-04-06T08:38:19.385Z,29.80
2023-04-06T08:43:25.057Z,29.15
2023-04-06T08:48:30.940Z,30.11
2023-04-06T08:53:34.404Z,28.18
2023-04-06T08:58:39.708Z,28.84
2023-04-06T09:03:45.663Z,29.54
2023-04-06T09:08:49.355Z,30.92
2023-04-06T09:13:53.991Z,30.99
2023-04-06T09:19:06.785Z,30.31
2023-04-06T09:24:11.409Z,29.17
2023-04-06T09:29:27.137Z,30.34
2023-04-06T09:34:32.078Z,29.00
2023-04-06T09:39:35.602Z,29.63
2023-04-06T09:44:39.066Z,29.84
2023-04-06T09:49:45.557Z,28.78
2023-04-06T09:54:52.799Z,28.91
2023-04-06T10:00:10.667Z,29.82
2023-04-06T10:05:22.788Z,30.22
2023-04-06T10:10:26.273Z,29.71
2023-04-06T10:15:35.691Z,29.10
2023-04-06T10:20:45.906Z,29.03
2023-04-06T10:25:57.254Z,30.43
2023-04-06T10:31:07.534Z,29.96
2023-04-06T10:36:20.923Z,29.99
2023-04-06T10:41:24.884Z,30.38
2023-04-06T10:46:32.415Z,30.07
2023-04-06T10:51:40.974Z,30.75
2023-04-06T10:56:46.425Z,31.25
2023-04-06T11:01:49.775Z,32.08
2023-04-06T11:06:57.465Z,32.41
2023-04-06T11:12:01.902Z,32.41
2023-04-06T11:17:06.036Z,32.33
2023-04-06T11:22:11.274Z,31.54
2023-04-06T11:27:16.169Z,31.88
2023-04-06T11:32:24.792Z,32.01
2023-04-06T11:37:30.395Z,32.11
2023-04-06T11:42:36.889Z,31.46
2023-04-06T11:47:41.736Z,31.46
2023-04-06T11:52:47.606Z,30.88
2023-04-06T11:57:52.893Z,31.01
2023-04-06T12:03:00.465Z,31.51
2023-04-06T12:08:05.494Z,31.21
2023-04-06T12:13:09.070Z,31.74
2023-04-06T12:18:12.849Z,32.14
2023-04-06T12:23:17.628Z,31.70
2023-04-06T12:28:28.004Z,31.76
2023-04-06T12:33:31.417Z,31.78
2023-04-06T12:38:39.240Z,31.53
2023-04-06T12:43:43.794Z,32.01
2023-04-06T12:48:48.967Z,31.75
2023-04-06T12:53:54.699Z,31.91
2023-04-06T12:59:00.473Z,32.39
2023-04-06T13:04:08.258Z,32.13
2023-04-06T13:09:16.587Z,31.78
2023-04-06T13:14:19.921Z,32.25
2023-04-06T13:19:26.903Z,32.47
2023-04-06T13:24:32.315Z,32.14
2023-04-06T13:29:37.142Z,32.21
2023-04-06T13:34:41.672Z,31.90
2023-04-06T13:39:46.422Z,32.04
2023-04-06T13:44:51.866Z,32.17
2023-04-06T13:49:57.315Z,32.15
2023-04-06T13:55:02.077Z,32.42
2023-04-06T14:00:08.134Z,32.21
2023-04-06T14:05:15.994Z,32.48
2023-04-06T14:10:22.315Z,32.57
2023-04-06T14:15:29.000Z,32.81
2023-04-06T14:20:34.304Z,33.16
2023-04-06T14:25:39.118Z,32.55
2023-04-06T14:30:45.721Z,32.51
2023-04-06T14:35:53.059Z,33.26
2023-04-06T14:40:57.920Z,33.37
2023-04-06T14:46:04.753Z,33.74
2023-04-06T14:51:08.525Z,33.47
2023-04-06T14:56:23.116Z,33.23
2023-04-06T15:01:26.926Z,33.38
2023-04-06T15:06:30.370Z,33.27
2023-04-06T15:11:35.418Z,32.95
2023-04-06T15:16:43.143Z,32.98
2023-04-06T15:21:46.714Z,33.25
2023-04-06T15:26:51.701Z,33.70
2023-04-06T15:31:57.045Z,33.76
2023-04-06T15:37:05.002Z,34.14
2023-04-06T15:42:12.345Z,33.95
2023-04-06T15:47:16.599Z,33.68
2023-04-06T15:52:23.093Z,34.62
2023-04-06T15:57:27.999Z,33.44
2023-04-06T16:02:35.851Z,34.64
2023-04-06T16:07:39.310Z,33.79
2023-04-06T16:12:44.218Z,34.52
2023-04-06T16:17:48.167Z,33.93
2023-04-06T16:22:51.532Z,34.36
2023-04-06T16:27:59.259Z,34.97
2023-04-06T16:33:02.837Z,35.31
2023-04-06T16:38:09.461Z,35.14
2023-04-06T16:43:15.380Z,34.97
2023-04-06T16:48:22.862Z,35.36
2023-04-06T16:53:31.977Z,35.24
2023-04-06T16:58:38.058Z,34.51
2023-04-06T17:03:44.391Z,35.46
2023-04-06T17:08:48.811Z,36.83
2023-04-06T17:13:56.613Z,37.24
2023-04-06T17:19:00.365Z,38.58
2023-04-06T17:24:08.152Z,38.34
2023-04-06T17:29:12.804Z,38.68
2023-04-06T17:34:19.698Z,39.92
2023-04-06T17:39:22.959Z,40.12
2023-04-06T17:44:32.058Z,40.41
2023-04-06T17:49:35.693Z,40.72
2023-04-06T17:54:39.306Z,40.35
2023-04-06T17:59:46.015Z,41.52
2023-04-06T18:04:54.042Z,42.54
2023-04-06T18:09:57.551Z,41.96
2023-04-06T18:15:02.339Z,42.07
2023-04-06T18:20:06.223Z,41.74
2023-04-06T18:25:11.392Z,42.36
2023-04-06T18:30:20.394Z,42.36
2023-04-06T18:35:24.494Z,41.83
2023-04-06T18:40:38.240Z,42.60
2023-04-06T18:45:48.054Z,42.67
2023-04-06T18:50:55.683Z,43.32
2023-04-06T18:55:59.246Z,43.45
2023-04-06T19:01:04.064Z,43.26
2023-04-06T19:06:08.779Z,43.26
2023-04-06T19:11:12.113Z,44.07
2023-04-06T19:16:17.323Z,43.75
2023-04-06T19:21:34.638Z,44.10
2023-04-06T19:26:38.041Z,44.37
2023-04-06T19:31:42.905Z,44.23
2023-04-06T19:36:46.336Z,44.22
2023-04-06T19:41:49.728Z,44.66
2023-04-06T19:46:54.774Z,44.47
2023-04-06T19:51:58.912Z,45.20
2023-04-06T19:57:02.616Z,45.21
2023-04-06T20:02:10.834Z,44.82
2023-04-06T20:07:14.489Z,44.56
2023-04-06T20:12:17.708Z,45.36
2023-04-06T20:17:23.949Z,45.36
2023-04-06T20:22:27.535Z,44.80
2023-04-06T20:27:31.127Z,44.47
2023-04-06T20:32:35.878Z,45.32
2023-04-06T20:37:39.257Z,45.31
2023-04-06T20:42:42.641Z,46.07
2023-04-06T20:47:48.426Z,45.36
2023-04-06T20:52:51.721Z,46.04
2023-04-06T20:57:54.993Z,45.67
2023-04-06T21:02:59.899Z,46.08
2023-04-06T21:08:04.515Z,46.83
2023-04-06T21:13:07.836Z,45.91
2023-04-06T21:18:12.965Z,46.14
2023-04-06T21:23:17.744Z,46.90
2023-04-06T21:28:20.929Z,47.50
2023-04-06T21:33:25.637Z,47.71
2023-04-06T21:38:30.765Z,47.44
2023-04-06T21:43:33.999Z,48.16
2023-04-06T21:48:38.657Z,47.96
2023-04-06T21:53:42.323Z,48.40
2023-04-06T21:58:45.565Z,47.92
2023-04-06T22:03:50.515Z,49.23
2023-04-06T22:08:54.946Z,49.30
2023-04-06T22:14:01.922Z,49.37
2023-04-06T22:19:06.672Z,49.86
2023-04-06T22:24:09.958Z,50.39
2023-04-06T22:29:13.192Z,49.59
2023-04-06T22:34:18.269Z,49.93
2023-04-06T22:39:21.910Z,50.22
2023-04-06T22:44:25.071Z,50.06
2023-04-06T22:49:31.049Z,51.01
2023-04-06T22:54:34.387Z,50.44
2023-04-06T22:59:37.960Z,50.71
2023-04-06T23:04:42.637Z,51.03
2023-04-06T23:09:45.826Z,51.36
2023-04-06T23:14:49.191Z,51.59
2023-04-06T23:19:53.916Z,51.47
2023-04-06T23:24:57.415Z,51.78
2023-04-06T23:30:01.075Z,51.33
2023-04-06T23:35:06.442Z,52.00
2023-04-06T23:40:10.521Z,51.87
2023-04-06T23:45:14.846Z,52.24
2023-04-06T23:50:19.901Z,52.29
2023-04-06T23:55:23.199Z,52.36
